sensor_id;sensor_type;location;lat;lon;timestamp;P1;durP1;ratioP1;P2;durP2;ratioP2
39128;SDS011;24864;49.940;19.770;2022-10-16T00:02:24;33.50;;;23.58;;
39128;SDS011;24864;49.940;19.770;2022-10-16T00:04:52;28.15;;;21.58;;
39128;SDS011;24864;49.940;19.770;2022-10-16T00:07:21;33.70;;;22.67;;
39128;SDS011;24864;49.940;19.770;2022-10-16T00:09:49;36.10;;;22.88;;
39128;SDS011;24864;49.940;19.770;2022-10-16T00:12:17;46.13;;;24.48;;
39128;SDS011;24864;49.940;19.770;2022-10-16T00:14:45;46.40;;;26.00;;
39128;SDS011;24864;49.940;19.770;2022-10-16T00:17:14;34.00;;;23.52;;
39128;SDS011;24864;49.940;19.770;2022-10-16T00:19:42;38.00;;;23.73;;
39128;SDS011;24864;49.940;19.770;2022-10-16T00:22:10;34.83;;;24.00;;
39128;SDS011;24864;49.940;19.770;2022-10-16T00:24:38;36.75;;;23.70;;
39128;SDS011;24864;49.940;19.770;2022-10-16T00:27:06;27.77;;;21.63;;
39128;SDS011;24864;49.940;19.770;2022-10-16T00:29:34;75.03;;;30.25;;
39128;SDS011;24864;49.940;19.770;2022-10-16T00:32:02;57.83;;;27.98;;
39128;SDS011;24864;49.940;19.770;2022-10-16T00:34:31;48.70;;;26.98;;
39128;SDS011;24864;49.940;19.770;2022-10-16T00:36:59;67.22;;;29.85;;
39128;SDS011;24864;49.940;19.770;2022-10-16T00:39:27;32.78;;;21.77;;
39128;SDS011;24864;49.940;19.770;2022-10-16T00:41:55;35.83;;;22.70;;
39128;SDS011;24864;49.940;19.770;2022-10-16T00:44:43;36.97;;;22.45;;
39128;SDS011;24864;49.940;19.770;2022-10-16T00:47:15;28.77;;;20.50;;
39128;SDS011;24864;49.940;19.770;2022-10-16T00:49:48;33.67;;;20.60;;
39128;SDS011;24864;49.940;19.770;2022-10-16T00:52:19;30.00;;;19.50;;
39128;SDS011;24864;49.940;19.770;2022-10-16T00:54:47;30.15;;;19.77;;
39128;SDS011;24864;49.940;19.770;2022-10-16T00:57:17;30.70;;;20.58;;
39128;SDS011;24864;49.940;19.770;2022-10-16T00:59:45;24.85;;;18.33;;
39128;SDS011;24864;49.940;19.770;2022-10-16T01:02:14;25.48;;;20.05;;
39128;SDS011;24864;49.940;19.770;2022-10-16T01:04:43;27.15;;;20.40;;
39128;SDS011;24864;49.940;19.770;2022-10-16T01:07:18;25.48;;;18.90;;
39128;SDS011;24864;49.940;19.770;2022-10-16T01:10:02;24.88;;;18.23;;
39128;SDS011;24864;49.940;19.770;2022-10-16T01:12:38;27.25;;;19.33;;
39128;SDS011;24864;49.940;19.770;2022-10-16T01:15:15;29.83;;;18.50;;
39128;SDS011;24864;49.940;19.770;2022-10-16T01:17:51;24.50;;;19.00;;
39128;SDS011;24864;49.940;19.770;2022-10-16T01:20:25;23.70;;;19.00;;
39128;SDS011;24864;49.940;19.770;2022-10-16T01:25:35;22.00;;;17.35;;
39128;SDS011;24864;49.940;19.770;2022-10-16T01:28:17;23.20;;;16.30;;
39128;SDS011;24864;49.940;19.770;2022-10-16T01:30:48;20.48;;;16.58;;
39128;SDS011;24864;49.940;19.770;2022-10-16T01:33:21;20.30;;;16.30;;
39128;SDS011;24864;49.940;19.770;2022-10-16T01:35:52;23.17;;;17.40;;
39128;SDS011;24864;49.940;19.770;2022-10-16T01:38:23;19.63;;;16.25;;
39128;SDS011;24864;49.940;19.770;2022-10-16T01:40:58;21.33;;;16.60;;
39128;SDS011;24864;49.940;19.770;2022-10-16T01:43:31;21.13;;;15.38;;
39128;SDS011;24864;49.940;19.770;2022-10-16T01:46:03;29.42;;;15.00;;
39128;SDS011;24864;49.940;19.770;2022-10-16T01:48:33;17.98;;;14.60;;
39128;SDS011;24864;49.940;19.770;2022-10-16T01:51:04;21.90;;;15.88;;
39128;SDS011;24864;49.940;19.770;2022-10-16T01:53:34;19.77;;;14.25;;
39128;SDS011;24864;49.940;19.770;2022-10-16T01:56:03;19.85;;;14.75;;
39128;SDS011;24864;49.940;19.770;2022-10-16T01:58:37;20.05;;;14.77;;
39128;SDS011;24864;49.940;19.770;2022-10-16T02:04:01;22.80;;;15.15;;
39128;SDS011;24864;49.940;19.770;2022-10-16T02:06:34;21.52;;;16.08;;
39128;SDS011;24864;49.940;19.770;2022-10-16T02:09:03;17.73;;;15.20;;
39128;SDS011;24864;49.940;19.770;2022-10-16T02:11:31;19.10;;;14.95;;
39128;SDS011;24864;49.940;19.770;2022-10-16T02:14:01;20.00;;;14.63;;
39128;SDS011;24864;49.940;19.770;2022-10-16T02:16:33;18.08;;;14.25;;
39128;SDS011;24864;49.940;19.770;2022-10-16T02:19:01;16.95;;;14.38;;
39128;SDS011;24864;49.940;19.770;2022-10-16T02:21:32;16.83;;;14.45;;
39128;SDS011;24864;49.940;19.770;2022-10-16T02:24:08;18.48;;;14.20;;
39128;SDS011;24864;49.940;19.770;2022-10-16T02:26:43;19.40;;;14.43;;
39128;SDS011;24864;49.940;19.770;2022-10-16T02:29:18;21.60;;;16.55;;
39128;SDS011;24864;49.940;19.770;2022-10-16T02:31:52;26.65;;;18.27;;
39128;SDS011;24864;49.940;19.770;2022-10-16T02:34:23;24.55;;;16.35;;
39128;SDS011;24864;49.940;19.770;2022-10-16T02:36:53;22.52;;;17.23;;
39128;SDS011;24864;49.940;19.770;2022-10-16T02:39:23;30.23;;;16.77;;
39128;SDS011;24864;49.940;19.770;2022-10-16T02:41:51;18.38;;;15.10;;
39128;SDS011;24864;49.940;19.770;2022-10-16T02:44:21;17.33;;;15.00;;
39128;SDS011;24864;49.940;19.770;2022-10-16T02:46:48;18.80;;;15.05;;
39128;SDS011;24864;49.940;19.770;2022-10-16T02:49:16;24.55;;;15.60;;
39128;SDS011;24864;49.940;19.770;2022-10-16T02:51:45;20.05;;;15.43;;
39128;SDS011;24864;49.940;19.770;2022-10-16T02:54:13;21.23;;;15.98;;
39128;SDS011;24864;49.940;19.770;2022-10-16T02:56:40;23.50;;;16.45;;
39128;SDS011;24864;49.940;19.770;2022-10-16T02:59:08;35.63;;;19.73;;
39128;SDS011;24864;49.940;19.770;2022-10-16T03:01:37;22.40;;;17.98;;
39128;SDS011;24864;49.940;19.770;2022-10-16T03:04:05;28.13;;;18.13;;
39128;SDS011;24864;49.940;19.770;2022-10-16T03:06:33;25.70;;;18.52;;
39128;SDS011;24864;49.940;19.770;2022-10-16T03:09:02;24.25;;;17.88;;
39128;SDS011;24864;49.940;19.770;2022-10-16T03:11:30;31.00;;;18.30;;
39128;SDS011;24864;49.940;19.770;2022-10-16T03:13:58;31.08;;;19.40;;
39128;SDS011;24864;49.940;19.770;2022-10-16T03:16:25;34.30;;;19.75;;
39128;SDS011;24864;49.940;19.770;2022-10-16T03:18:55;23.40;;;16.80;;
39128;SDS011;24864;49.940;19.770;2022-10-16T03:21:23;22.55;;;16.50;;
39128;SDS011;24864;49.940;19.770;2022-10-16T03:23:51;18.55;;;15.52;;
39128;SDS011;24864;49.940;19.770;2022-10-16T03:26:19;20.48;;;15.27;;
39128;SDS011;24864;49.940;19.770;2022-10-16T03:28:47;24.45;;;16.40;;
39128;SDS011;24864;49.940;19.770;2022-10-16T03:31:15;23.15;;;15.68;;
39128;SDS011;24864;49.940;19.770;2022-10-16T03:33:43;21.17;;;16.55;;
39128;SDS011;24864;49.940;19.770;2022-10-16T03:36:12;22.77;;;17.50;;
39128;SDS011;24864;49.940;19.770;2022-10-16T03:38:40;22.58;;;16.85;;
39128;SDS011;24864;49.940;19.770;2022-10-16T03:41:08;23.05;;;17.92;;
39128;SDS011;24864;49.940;19.770;2022-10-16T03:43:36;25.13;;;17.98;;
39128;SDS011;24864;49.940;19.770;2022-10-16T03:46:04;21.20;;;17.55;;
39128;SDS011;24864;49.940;19.770;2022-10-16T03:48:32;21.98;;;17.15;;
39128;SDS011;24864;49.940;19.770;2022-10-16T03:51:00;20.98;;;16.33;;
39128;SDS011;24864;49.940;19.770;2022-10-16T03:53:30;20.90;;;16.98;;
39128;SDS011;24864;49.940;19.770;2022-10-16T03:55:57;22.05;;;18.38;;
39128;SDS011;24864;49.940;19.770;2022-10-16T03:58:25;22.58;;;18.13;;
39128;SDS011;24864;49.940;19.770;2022-10-16T04:00:53;25.05;;;17.58;;
39128;SDS011;24864;49.940;19.770;2022-10-16T04:03:22;19.13;;;16.27;;
39128;SDS011;24864;49.940;19.770;2022-10-16T04:05:50;20.63;;;16.70;;
39128;SDS011;24864;49.940;19.770;2022-10-16T04:08:18;21.25;;;16.90;;
39128;SDS011;24864;49.940;19.770;2022-10-16T04:10:47;25.85;;;17.05;;
39128;SDS011;24864;49.940;19.770;2022-10-16T04:13:15;23.05;;;17.40;;
39128;SDS011;24864;49.940;19.770;2022-10-16T04:15:44;23.98;;;18.30;;
39128;SDS011;24864;49.940;19.770;2022-10-16T04:18:12;22.95;;;18.58;;
39128;SDS011;24864;49.940;19.770;2022-10-16T04:20:40;22.33;;;17.27;;
39128;SDS011;24864;49.940;19.770;2022-10-16T04:23:08;19.98;;;17.23;;
39128;SDS011;24864;49.940;19.770;2022-10-16T04:25:36;22.35;;;19.15;;
39128;SDS011;24864;49.940;19.770;2022-10-16T04:28:05;22.23;;;19.17;;
39128;SDS011;24864;49.940;19.770;2022-10-16T04:30:33;23.77;;;18.17;;
39128;SDS011;24864;49.940;19.770;2022-10-16T04:33:01;23.23;;;17.98;;
39128;SDS011;24864;49.940;19.770;2022-10-16T04:35:29;20.77;;;17.48;;
39128;SDS011;24864;49.940;19.770;2022-10-16T04:37:57;22.25;;;18.90;;
39128;SDS011;24864;49.940;19.770;2022-10-16T04:40:25;22.17;;;18.48;;
39128;SDS011;24864;49.940;19.770;2022-10-16T04:42:53;24.13;;;18.02;;
39128;SDS011;24864;49.940;19.770;2022-10-16T04:45:22;23.63;;;17.25;;
39128;SDS011;24864;49.940;19.770;2022-10-16T04:47:50;24.02;;;18.42;;
39128;SDS011;24864;49.940;19.770;2022-10-16T04:50:17;23.23;;;18.15;;
39128;SDS011;24864;49.940;19.770;2022-10-16T04:52:45;29.27;;;18.60;;
39128;SDS011;24864;49.940;19.770;2022-10-16T04:55:13;21.92;;;18.73;;
39128;SDS011;24864;49.940;19.770;2022-10-16T04:57:42;23.65;;;17.98;;
39128;SDS011;24864;49.940;19.770;2022-10-16T05:00:10;22.42;;;17.90;;
39128;SDS011;24864;49.940;19.770;2022-10-16T05:02:39;25.27;;;18.52;;
39128;SDS011;24864;49.940;19.770;2022-10-16T05:05:07;26.85;;;18.10;;
39128;SDS011;24864;49.940;19.770;2022-10-16T05:07:36;25.45;;;18.58;;
39128;SDS011;24864;49.940;19.770;2022-10-16T05:10:04;22.77;;;18.52;;
39128;SDS011;24864;49.940;19.770;2022-10-16T05:12:32;23.75;;;17.75;;
39128;SDS011;24864;49.940;19.770;2022-10-16T05:15:00;28.20;;;18.33;;
39128;SDS011;24864;49.940;19.770;2022-10-16T05:17:28;26.73;;;19.92;;
39128;SDS011;24864;49.940;19.770;2022-10-16T05:19:57;28.02;;;19.38;;
39128;SDS011;24864;49.940;19.770;2022-10-16T05:22:25;23.60;;;18.70;;
39128;SDS011;24864;49.940;19.770;2022-10-16T05:24:53;25.80;;;20.15;;
39128;SDS011;24864;49.940;19.770;2022-10-16T05:27:21;27.48;;;20.73;;
39128;SDS011;24864;49.940;19.770;2022-10-16T05:29:50;28.27;;;19.67;;
39128;SDS011;24864;49.940;19.770;2022-10-16T05:32:18;23.50;;;19.02;;
39128;SDS011;24864;49.940;19.770;2022-10-16T05:34:46;27.77;;;20.38;;
39128;SDS011;24864;49.940;19.770;2022-10-16T05:37:15;28.20;;;19.45;;
39128;SDS011;24864;49.940;19.770;2022-10-16T05:39:43;25.02;;;19.45;;
39128;SDS011;24864;49.940;19.770;2022-10-16T05:42:11;24.60;;;19.15;;
39128;SDS011;24864;49.940;19.770;2022-10-16T05:44:39;24.13;;;18.10;;
39128;SDS011;24864;49.940;19.770;2022-10-16T05:47:07;27.35;;;19.83;;
39128;SDS011;24864;49.940;19.770;2022-10-16T05:49:35;27.15;;;16.92;;
39128;SDS011;24864;49.940;19.770;2022-10-16T05:52:07;25.85;;;17.30;;
39128;SDS011;24864;49.940;19.770;2022-10-16T05:54:36;21.15;;;17.33;;
39128;SDS011;24864;49.940;19.770;2022-10-16T05:57:04;23.52;;;17.05;;
39128;SDS011;24864;49.940;19.770;2022-10-16T05:59:33;26.90;;;17.15;;
39128;SDS011;24864;49.940;19.770;2022-10-16T06:02:01;22.98;;;17.05;;
39128;SDS011;24864;49.940;19.770;2022-10-16T06:04:28;23.83;;;17.50;;
39128;SDS011;24864;49.940;19.770;2022-10-16T06:06:57;23.92;;;17.42;;
39128;SDS011;24864;49.940;19.770;2022-10-16T06:09:26;22.63;;;18.17;;
39128;SDS011;24864;49.940;19.770;2022-10-16T06:11:56;21.98;;;17.77;;
39128;SDS011;24864;49.940;19.770;2022-10-16T06:14:24;23.17;;;19.13;;
39128;SDS011;24864;49.940;19.770;2022-10-16T06:16:52;21.20;;;18.02;;
39128;SDS011;24864;49.940;19.770;2022-10-16T06:19:19;25.25;;;18.20;;
39128;SDS011;24864;49.940;19.770;2022-10-16T06:21:47;21.92;;;18.23;;
39128;SDS011;24864;49.940;19.770;2022-10-16T06:24:15;24.40;;;17.77;;
39128;SDS011;24864;49.940;19.770;2022-10-16T06:26:43;22.77;;;17.48;;
39128;SDS011;24864;49.940;19.770;2022-10-16T06:29:12;21.67;;;16.52;;
39128;SDS011;24864;49.940;19.770;2022-10-16T06:31:40;18.67;;;16.33;;
39128;SDS011;24864;49.940;19.770;2022-10-16T06:34:08;22.42;;;17.05;;
39128;SDS011;24864;49.940;19.770;2022-10-16T06:36:38;20.73;;;16.05;;
39128;SDS011;24864;49.940;19.770;2022-10-16T06:39:06;20.73;;;16.67;;
39128;SDS011;24864;49.940;19.770;2022-10-16T06:41:34;20.58;;;15.90;;
39128;SDS011;24864;49.940;19.770;2022-10-16T06:44:04;22.85;;;16.42;;
39128;SDS011;24864;49.940;19.770;2022-10-16T06:46:34;18.15;;;16.27;;
39128;SDS011;24864;49.940;19.770;2022-10-16T06:49:02;22.65;;;15.85;;
39128;SDS011;24864;49.940;19.770;2022-10-16T06:51:30;28.20;;;17.85;;
39128;SDS011;24864;49.940;19.770;2022-10-16T06:54:06;20.38;;;16.20;;
39128;SDS011;24864;49.940;19.770;2022-10-16T06:56:34;23.25;;;15.98;;
39128;SDS011;24864;49.940;19.770;2022-10-16T06:59:02;18.02;;;15.55;;
39128;SDS011;24864;49.940;19.770;2022-10-16T07:01:31;20.55;;;15.10;;
39128;SDS011;24864;49.940;19.770;2022-10-16T07:04:01;21.90;;;14.43;;
39128;SDS011;24864;49.940;19.770;2022-10-16T07:06:30;16.80;;;14.55;;
39128;SDS011;24864;49.940;19.770;2022-10-16T07:09:01;16.30;;;13.90;;
39128;SDS011;24864;49.940;19.770;2022-10-16T07:11:30;18.15;;;14.27;;
39128;SDS011;24864;49.940;19.770;2022-10-16T07:13:58;15.60;;;12.27;;
39128;SDS011;24864;49.940;19.770;2022-10-16T07:16:27;13.77;;;12.27;;
39128;SDS011;24864;49.940;19.770;2022-10-16T07:18:56;14.52;;;12.75;;
39128;SDS011;24864;49.940;19.770;2022-10-16T07:21:28;17.48;;;13.98;;
39128;SDS011;24864;49.940;19.770;2022-10-16T07:24:01;13.40;;;12.00;;
39128;SDS011;24864;49.940;19.770;2022-10-16T07:26:32;18.48;;;12.38;;
39128;SDS011;24864;49.940;19.770;2022-10-16T07:29:02;14.77;;;11.77;;
39128;SDS011;24864;49.940;19.770;2022-10-16T07:31:31;14.35;;;11.15;;
39128;SDS011;24864;49.940;19.770;2022-10-16T07:33:59;11.60;;;10.40;;
39128;SDS011;24864;49.940;19.770;2022-10-16T07:36:29;12.27;;;11.05;;
39128;SDS011;24864;49.940;19.770;2022-10-16T07:38:57;13.02;;;10.95;;
39128;SDS011;24864;49.940;19.770;2022-10-16T07:41:26;15.25;;;11.60;;
39128;SDS011;24864;49.940;19.770;2022-10-16T07:43:54;15.90;;;12.13;;
39128;SDS011;24864;49.940;19.770;2022-10-16T07:46:23;12.80;;;10.55;;
39128;SDS011;24864;49.940;19.770;2022-10-16T07:48:51;11.95;;;10.25;;
39128;SDS011;24864;49.940;19.770;2022-10-16T07:51:20;11.43;;;10.18;;
39128;SDS011;24864;49.940;19.770;2022-10-16T07:53:51;12.73;;;9.40;;
39128;SDS011;24864;49.940;19.770;2022-10-16T07:56:20;11.52;;;9.90;;
39128;SDS011;24864;49.940;19.770;2022-10-16T07:58:49;17.58;;;14.18;;
39128;SDS011;24864;49.940;19.770;2022-10-16T08:01:18;20.85;;;14.30;;
39128;SDS011;24864;49.940;19.770;2022-10-16T08:03:46;16.80;;;13.63;;
39128;SDS011;24864;49.940;19.770;2022-10-16T08:06:16;19.38;;;14.20;;
39128;SDS011;24864;49.940;19.770;2022-10-16T08:08:53;19.30;;;14.52;;
39128;SDS011;24864;49.940;19.770;2022-10-16T08:11:22;19.67;;;14.30;;
39128;SDS011;24864;49.940;19.770;2022-10-16T08:13:50;15.57;;;13.90;;
39128;SDS011;24864;49.940;19.770;2022-10-16T08:16:18;15.07;;;12.55;;
39128;SDS011;24864;49.940;19.770;2022-10-16T08:18:46;16.42;;;13.65;;
39128;SDS011;24864;49.940;19.770;2022-10-16T08:21:15;17.80;;;13.02;;
39128;SDS011;24864;49.940;19.770;2022-10-16T08:23:47;18.30;;;14.20;;
39128;SDS011;24864;49.940;19.770;2022-10-16T08:26:24;17.85;;;13.85;;
39128;SDS011;24864;49.940;19.770;2022-10-16T08:28:52;19.50;;;15.00;;
39128;SDS011;24864;49.940;19.770;2022-10-16T08:31:21;20.23;;;15.00;;
39128;SDS011;24864;49.940;19.770;2022-10-16T08:33:50;16.50;;;14.75;;
39128;SDS011;24864;49.940;19.770;2022-10-16T08:36:18;17.77;;;15.25;;
39128;SDS011;24864;49.940;19.770;2022-10-16T08:38:47;19.55;;;15.15;;
39128;SDS011;24864;49.940;19.770;2022-10-16T08:41:19;22.70;;;15.00;;
39128;SDS011;24864;49.940;19.770;2022-10-16T08:47:07;14.38;;;12.80;;
39128;SDS011;24864;49.940;19.770;2022-10-16T08:49:41;17.40;;;13.75;;
39128;SDS011;24864;49.940;19.770;2022-10-16T08:52:21;17.95;;;13.27;;
39128;SDS011;24864;49.940;19.770;2022-10-16T08:54:52;14.77;;;12.23;;
39128;SDS011;24864;49.940;19.770;2022-10-16T08:57:24;13.52;;;11.85;;
39128;SDS011;24864;49.940;19.770;2022-10-16T08:59:55;19.65;;;11.77;;
39128;SDS011;24864;49.940;19.770;2022-10-16T09:02:29;16.58;;;11.70;;
39128;SDS011;24864;49.940;19.770;2022-10-16T09:05:10;21.77;;;12.80;;
39128;SDS011;24864;49.940;19.770;2022-10-16T09:07:49;15.80;;;11.80;;
39128;SDS011;24864;49.940;19.770;2022-10-16T09:10:29;14.25;;;12.35;;
39128;SDS011;24864;49.940;19.770;2022-10-16T09:13:09;18.52;;;15.00;;
39128;SDS011;24864;49.940;19.770;2022-10-16T09:15:47;16.08;;;14.38;;
39128;SDS011;24864;49.940;19.770;2022-10-16T09:18:24;15.32;;;12.98;;
39128;SDS011;24864;49.940;19.770;2022-10-16T09:20:59;16.55;;;13.43;;
39128;SDS011;24864;49.940;19.770;2022-10-16T09:23:34;14.38;;;12.88;;
39128;SDS011;24864;49.940;19.770;2022-10-16T09:26:04;16.33;;;13.13;;
39128;SDS011;24864;49.940;19.770;2022-10-16T09:28:36;12.68;;;10.95;;
39128;SDS011;24864;49.940;19.770;2022-10-16T09:31:07;14.52;;;11.73;;
39128;SDS011;24864;49.940;19.770;2022-10-16T09:33:41;12.32;;;11.13;;
39128;SDS011;24864;49.940;19.770;2022-10-16T09:36:09;12.68;;;10.35;;
39128;SDS011;24864;49.940;19.770;2022-10-16T09:38:39;18.17;;;9.88;;
39128;SDS011;24864;49.940;19.770;2022-10-16T09:41:13;14.68;;;10.23;;
39128;SDS011;24864;49.940;19.770;2022-10-16T09:43:46;13.40;;;10.13;;
39128;SDS011;24864;49.940;19.770;2022-10-16T09:46:24;12.55;;;10.57;;
39128;SDS011;24864;49.940;19.770;2022-10-16T09:48:54;10.45;;;8.07;;
39128;SDS011;24864;49.940;19.770;2022-10-16T09:51:24;10.02;;;8.68;;
39128;SDS011;24864;49.940;19.770;2022-10-16T09:53:55;12.30;;;8.05;;
39128;SDS011;24864;49.940;19.770;2022-10-16T09:56:25;8.00;;;7.20;;
39128;SDS011;24864;49.940;19.770;2022-10-16T09:58:55;12.15;;;8.13;;
39128;SDS011;24864;49.940;19.770;2022-10-16T10:01:26;14.70;;;7.13;;
39128;SDS011;24864;49.940;19.770;2022-10-16T10:03:58;8.57;;;6.82;;
39128;SDS011;24864;49.940;19.770;2022-10-16T10:06:29;8.25;;;7.45;;
39128;SDS011;24864;49.940;19.770;2022-10-16T10:09:02;9.53;;;8.40;;
39128;SDS011;24864;49.940;19.770;2022-10-16T10:14:21;6.15;;;5.55;;
39128;SDS011;24864;49.940;19.770;2022-10-16T10:17:02;6.07;;;5.43;;
39128;SDS011;24864;49.940;19.770;2022-10-16T10:19:39;8.43;;;6.10;;
39128;SDS011;24864;49.940;19.770;2022-10-16T10:22:18;11.95;;;6.53;;
39128;SDS011;24864;49.940;19.770;2022-10-16T10:24:57;9.05;;;5.80;;
39128;SDS011;24864;49.940;19.770;2022-10-16T10:27:42;6.50;;;5.75;;
39128;SDS011;24864;49.940;19.770;2022-10-16T10:30:20;11.43;;;5.88;;
39128;SDS011;24864;49.940;19.770;2022-10-16T10:32:57;6.18;;;5.57;;
39128;SDS011;24864;49.940;19.770;2022-10-16T10:35:39;7.97;;;5.90;;
39128;SDS011;24864;49.940;19.770;2022-10-16T10:38:16;8.90;;;5.63;;
39128;SDS011;24864;49.940;19.770;2022-10-16T10:40:56;8.32;;;5.55;;
39128;SDS011;24864;49.940;19.770;2022-10-16T10:43:46;9.07;;;6.15;;
39128;SDS011;24864;49.940;19.770;2022-10-16T10:46:25;6.53;;;5.80;;
39128;SDS011;24864;49.940;19.770;2022-10-16T10:49:04;10.57;;;5.80;;
39128;SDS011;24864;49.940;19.770;2022-10-16T10:51:44;9.63;;;6.05;;
39128;SDS011;24864;49.940;19.770;2022-10-16T10:54:20;8.50;;;6.50;;
39128;SDS011;24864;49.940;19.770;2022-10-16T10:56:57;10.25;;;5.93;;
39128;SDS011;24864;49.940;19.770;2022-10-16T11:02:26;10.82;;;6.43;;
39128;SDS011;24864;49.940;19.770;2022-10-16T11:05:12;10.60;;;5.97;;
39128;SDS011;24864;49.940;19.770;2022-10-16T11:08:04;10.50;;;5.60;;
39128;SDS011;24864;49.940;19.770;2022-10-16T11:10:40;12.95;;;5.95;;
39128;SDS011;24864;49.940;19.770;2022-10-16T11:13:16;8.93;;;5.97;;
39128;SDS011;24864;49.940;19.770;2022-10-16T11:15:51;8.77;;;6.38;;
39128;SDS011;24864;49.940;19.770;2022-10-16T11:18:24;8.07;;;5.32;;
39128;SDS011;24864;49.940;19.770;2022-10-16T11:20:59;6.35;;;5.75;;
39128;SDS011;24864;49.940;19.770;2022-10-16T11:23:33;11.73;;;5.43;;
39128;SDS011;24864;49.940;19.770;2022-10-16T11:26:08;7.25;;;5.43;;
39128;SDS011;24864;49.940;19.770;2022-10-16T11:28:42;10.30;;;6.03;;
39128;SDS011;24864;49.940;19.770;2022-10-16T11:31:16;8.75;;;5.90;;
39128;SDS011;24864;49.940;19.770;2022-10-16T11:33:51;8.05;;;5.85;;
39128;SDS011;24864;49.940;19.770;2022-10-16T11:36:27;59.80;;;43.20;;
39128;SDS011;24864;49.940;19.770;2022-10-16T11:39:02;16.23;;;14.73;;
39128;SDS011;24864;49.940;19.770;2022-10-16T11:41:39;9.07;;;7.40;;
39128;SDS011;24864;49.940;19.770;2022-10-16T11:44:20;9.68;;;6.40;;
39128;SDS011;24864;49.940;19.770;2022-10-16T11:47:05;7.78;;;6.97;;
39128;SDS011;24864;49.940;19.770;2022-10-16T11:49:59;8.63;;;6.05;;
39128;SDS011;24864;49.940;19.770;2022-10-16T11:52:33;6.72;;;6.05;;
39128;SDS011;24864;49.940;19.770;2022-10-16T11:55:12;11.52;;;6.25;;
39128;SDS011;24864;49.940;19.770;2022-10-16T11:57:44;5.93;;;5.35;;
39128;SDS011;24864;49.940;19.770;2022-10-16T12:00:18;8.07;;;6.32;;
39128;SDS011;24864;49.940;19.770;2022-10-16T12:02:55;8.05;;;6.25;;
39128;SDS011;24864;49.940;19.770;2022-10-16T12:05:29;7.43;;;5.82;;
39128;SDS011;24864;49.940;19.770;2022-10-16T12:08:08;6.05;;;5.45;;
39128;SDS011;24864;49.940;19.770;2022-10-16T12:10:38;6.55;;;5.43;;
39128;SDS011;24864;49.940;19.770;2022-10-16T12:13:28;6.70;;;6.10;;
39128;SDS011;24864;49.940;19.770;2022-10-16T12:16:04;9.35;;;5.80;;
39128;SDS011;24864;49.940;19.770;2022-10-16T12:18:33;6.85;;;6.00;;
39128;SDS011;24864;49.940;19.770;2022-10-16T12:21:01;8.40;;;6.97;;
39128;SDS011;24864;49.940;19.770;2022-10-16T12:23:36;7.57;;;6.00;;
39128;SDS011;24864;49.940;19.770;2022-10-16T12:26:05;10.15;;;6.03;;
39128;SDS011;24864;49.940;19.770;2022-10-16T12:28:33;10.18;;;6.28;;
39128;SDS011;24864;49.940;19.770;2022-10-16T12:31:03;7.03;;;6.32;;
39128;SDS011;24864;49.940;19.770;2022-10-16T12:33:33;10.18;;;5.93;;
39128;SDS011;24864;49.940;19.770;2022-10-16T12:36:03;9.52;;;5.60;;
39128;SDS011;24864;49.940;19.770;2022-10-16T12:38:44;7.80;;;5.72;;
39128;SDS011;24864;49.940;19.770;2022-10-16T12:41:23;7.47;;;6.18;;
39128;SDS011;24864;49.940;19.770;2022-10-16T12:43:52;12.60;;;11.25;;
39128;SDS011;24864;49.940;19.770;2022-10-16T12:46:33;8.63;;;5.93;;
39128;SDS011;24864;49.940;19.770;2022-10-16T12:49:05;7.95;;;7.15;;
39128;SDS011;24864;49.940;19.770;2022-10-16T12:51:47;11.43;;;9.32;;
39128;SDS011;24864;49.940;19.770;2022-10-16T12:54:17;9.75;;;8.48;;
39128;SDS011;24864;49.940;19.770;2022-10-16T12:56:51;5.80;;;4.70;;
39128;SDS011;24864;49.940;19.770;2022-10-16T12:59:38;5.53;;;4.45;;
39128;SDS011;24864;49.940;19.770;2022-10-16T13:05:36;6.07;;;3.78;;
39128;SDS011;24864;49.940;19.770;2022-10-16T13:08:21;4.07;;;3.65;;
39128;SDS011;24864;49.940;19.770;2022-10-16T13:11:05;6.47;;;3.65;;
39128;SDS011;24864;49.940;19.770;2022-10-16T13:13:48;6.18;;;3.75;;
39128;SDS011;24864;49.940;19.770;2022-10-16T13:16:29;7.70;;;4.07;;
39128;SDS011;24864;49.940;19.770;2022-10-16T13:19:11;6.88;;;3.92;;
39128;SDS011;24864;49.940;19.770;2022-10-16T13:21:49;5.25;;;4.75;;
39128;SDS011;24864;49.940;19.770;2022-10-16T13:24:29;4.50;;;4.10;;
39128;SDS011;24864;49.940;19.770;2022-10-16T13:27:13;5.90;;;4.03;;
39128;SDS011;24864;49.940;19.770;2022-10-16T13:29:52;7.13;;;4.07;;
39128;SDS011;24864;49.940;19.770;2022-10-16T13:32:28;7.57;;;4.53;;
39128;SDS011;24864;49.940;19.770;2022-10-16T13:34:56;5.80;;;4.35;;
39128;SDS011;24864;49.940;19.770;2022-10-16T13:37:24;4.70;;;4.30;;
39128;SDS011;24864;49.940;19.770;2022-10-16T13:40:02;6.13;;;4.82;;
39128;SDS011;24864;49.940;19.770;2022-10-16T13:42:36;5.57;;;4.95;;
39128;SDS011;24864;49.940;19.770;2022-10-16T13:45:04;9.50;;;7.22;;
39128;SDS011;24864;49.940;19.770;2022-10-16T13:47:33;10.52;;;7.88;;
39128;SDS011;24864;49.940;19.770;2022-10-16T13:50:01;6.80;;;5.75;;
39128;SDS011;24864;49.940;19.770;2022-10-16T13:52:31;8.95;;;7.32;;
39128;SDS011;24864;49.940;19.770;2022-10-16T13:54:59;6.70;;;6.05;;
39128;SDS011;24864;49.940;19.770;2022-10-16T13:57:28;7.40;;;5.72;;
39128;SDS011;24864;49.940;19.770;2022-10-16T13:59:57;9.50;;;4.78;;
39128;SDS011;24864;49.940;19.770;2022-10-16T14:02:26;10.27;;;5.43;;
39128;SDS011;24864;49.940;19.770;2022-10-16T14:04:58;9.57;;;5.85;;
39128;SDS011;24864;49.940;19.770;2022-10-16T14:07:27;7.47;;;5.93;;
39128;SDS011;24864;49.940;19.770;2022-10-16T14:09:58;7.18;;;5.35;;
39128;SDS011;24864;49.940;19.770;2022-10-16T14:12:29;9.55;;;5.53;;
39128;SDS011;24864;49.940;19.770;2022-10-16T14:14:59;10.38;;;5.82;;
39128;SDS011;24864;49.940;19.770;2022-10-16T14:17:28;7.55;;;5.18;;
39128;SDS011;24864;49.940;19.770;2022-10-16T14:20:00;6.70;;;5.90;;
39128;SDS011;24864;49.940;19.770;2022-10-16T14:22:34;9.10;;;6.70;;
39128;SDS011;24864;49.940;19.770;2022-10-16T14:25:27;9.73;;;6.93;;
39128;SDS011;24864;49.940;19.770;2022-10-16T14:27:57;7.47;;;6.40;;
39128;SDS011;24864;49.940;19.770;2022-10-16T14:30:29;11.50;;;6.40;;
39128;SDS011;24864;49.940;19.770;2022-10-16T14:32:58;8.18;;;6.25;;
39128;SDS011;24864;49.940;19.770;2022-10-16T14:35:29;8.82;;;6.75;;
39128;SDS011;24864;49.940;19.770;2022-10-16T14:37:59;13.35;;;7.95;;
39128;SDS011;24864;49.940;19.770;2022-10-16T14:40:29;9.93;;;8.32;;
39128;SDS011;24864;49.940;19.770;2022-10-16T14:42:59;9.23;;;8.32;;
39128;SDS011;24864;49.940;19.770;2022-10-16T14:45:30;10.55;;;7.25;;
39128;SDS011;24864;49.940;19.770;2022-10-16T14:48:02;9.35;;;7.28;;
39128;SDS011;24864;49.940;19.770;2022-10-16T14:50:45;8.35;;;6.10;;
39128;SDS011;24864;49.940;19.770;2022-10-16T14:53:14;10.82;;;6.95;;
39128;SDS011;24864;49.940;19.770;2022-10-16T14:55:42;8.90;;;7.47;;
39128;SDS011;24864;49.940;19.770;2022-10-16T14:58:11;9.00;;;6.47;;
39128;SDS011;24864;49.940;19.770;2022-10-16T15:03:11;9.38;;;7.15;;